createdAt,value
2022-08-28T00:02:27.547Z,47.46
2022-08-28T00:04:54.168Z,47.28
2022-08-28T00:07:20.833Z,47.12
2022-08-28T00:09:47.450Z,47.37
2022-08-28T00:12:14.515Z,46.95
2022-08-28T00:14:41.113Z,47.23
2022-08-28T00:17:07.824Z,46.99
2022-08-28T00:19:38.426Z,47.17
2022-08-28T00:22:06.497Z,47.09
2022-08-28T00:24:33.830Z,47.15
2022-08-28T00:27:19.091Z,47.24
2022-08-28T00:29:45.807Z,47.23
2022-08-28T00:32:13.733Z,47.13
2022-08-28T00:34:40.368Z,47.29
2022-08-28T00:37:07.307Z,47.24
2022-08-28T00:39:34.674Z,46.96
2022-08-28T00:42:01.547Z,47.13
2022-08-28T00:44:29.013Z,47.21
2022-08-28T00:46:58.390Z,47.39
2022-08-28T00:49:29.431Z,47.17
2022-08-28T00:52:05.817Z,47.47
2022-08-28T00:54:36.919Z,47.12
2022-08-28T00:57:07.793Z,46.99
2022-08-28T00:59:34.571Z,47.24
2022-08-28T01:02:01.312Z,47.15
2022-08-28T01:04:32.258Z,47.24
2022-08-28T01:07:02.465Z,47.03
2022-08-28T01:09:31.777Z,47.17
2022-08-28T01:12:06.600Z,47.39
2022-08-28T01:14:36.701Z,47.08
2022-08-28T01:17:04.682Z,47.21
2022-08-28T01:19:38.780Z,47.28
2022-08-28T01:22:15.540Z,47.41
2022-08-28T01:24:44.979Z,47.31
2022-08-28T01:27:11.697Z,47.18
2022-08-28T01:29:38.350Z,47.13
2022-08-28T01:32:05.520Z,47.14
2022-08-28T01:34:34.566Z,47.32
2022-08-28T01:37:03.399Z,47.25
2022-08-28T01:39:30.418Z,46.95
2022-08-28T01:41:59.481Z,47.32
2022-08-28T01:44:28.041Z,47.27
2022-08-28T01:46:57.813Z,47.23
2022-08-28T01:49:24.915Z,47.29
2022-08-28T01:51:52.392Z,47.01
2022-08-28T01:54:21.539Z,47.03
2022-08-28T01:56:48.048Z,47.36
2022-08-28T01:59:15.508Z,47.26
2022-08-28T02:01:43.474Z,47.05
2022-08-28T02:04:10.939Z,47.24
2022-08-28T02:06:38.103Z,47.43
2022-08-28T02:09:07.021Z,47.33
2022-08-28T02:11:45.379Z,46.94
2022-08-28T02:14:14.154Z,47.41
2022-08-28T02:16:40.719Z,47.22
2022-08-28T02:19:07.279Z,46.95
2022-08-28T02:21:35.491Z,47.02
2022-08-28T02:24:02.384Z,47.20
2022-08-28T02:26:30.304Z,47.30
2022-08-28T02:28:56.996Z,46.99
2022-08-28T02:31:23.847Z,46.96
2022-08-28T02:33:50.774Z,47.04
2022-08-28T02:36:17.932Z,47.11
2022-08-28T02:38:45.928Z,47.29
2022-08-28T02:41:13.644Z,46.99
2022-08-28T02:43:40.711Z,47.31
2022-08-28T02:46:07.349Z,47.23
2022-08-28T02:48:36.837Z,47.27
2022-08-28T02:51:07.244Z,47.31
2022-08-28T02:53:34.335Z,46.94
2022-08-28T02:56:02.905Z,47.25
2022-08-28T02:58:32.808Z,47.21
2022-08-28T03:01:01.737Z,47.26
2022-08-28T03:03:31.162Z,47.44
2022-08-28T03:05:59.976Z,47.25
2022-08-28T03:08:27.975Z,46.99
2022-08-28T03:10:55.198Z,47.10
2022-08-28T03:13:23.054Z,47.39
2022-08-28T03:15:55.976Z,47.12
2022-08-28T03:18:25.350Z,47.17
2022-08-28T03:20:53.650Z,47.37
2022-08-28T03:23:26.376Z,47.33
2022-08-28T03:26:00.059Z,46.99
2022-08-28T03:28:29.964Z,47.18
2022-08-28T03:30:57.677Z,47.21
2022-08-28T03:33:25.414Z,47.43
2022-08-28T03:35:52.463Z,47.47
2022-08-28T03:38:19.648Z,47.07
2022-08-28T03:43:14.115Z,47.04
2022-08-28T03:45:41.243Z,47.16
2022-08-28T03:48:08.404Z,47.21
2022-08-28T03:50:36.139Z,47.04
2022-08-28T03:53:02.966Z,47.31
2022-08-28T03:55:30.239Z,47.53
2022-08-28T03:57:56.817Z,47.47
2022-08-28T04:00:25.541Z,47.18
2022-08-28T04:02:52.263Z,47.51
2022-08-28T04:05:19.333Z,47.29
2022-08-28T04:07:46.016Z,47.19
2022-08-28T04:10:12.858Z,47.14
2022-08-28T04:12:39.441Z,47.36
2022-08-28T04:15:07.192Z,47.62
2022-08-28T04:17:34.375Z,47.17
2022-08-28T04:20:04.441Z,47.17
2022-08-28T04:22:31.049Z,47.53
2022-08-28T04:24:57.641Z,47.69
2022-08-28T04:29:52.236Z,47.30
2022-08-28T04:32:18.885Z,47.45
2022-08-28T04:34:45.524Z,47.51
2022-08-28T04:37:12.355Z,47.15
2022-08-28T04:39:38.928Z,47.27
2022-08-28T04:42:05.632Z,47.37
2022-08-28T04:44:32.311Z,47.33
2022-08-28T04:46:58.957Z,47.61
2022-08-28T04:49:25.874Z,47.13
2022-08-28T04:51:52.829Z,47.62
2022-08-28T04:54:20.092Z,47.58
2022-08-28T04:56:46.691Z,47.47
2022-08-28T04:59:13.280Z,47.15
2022-08-28T05:01:44.031Z,47.39
2022-08-28T05:04:12.272Z,47.50
2022-08-28T05:06:46.151Z,47.58
2022-08-28T05:09:20.416Z,47.48
2022-08-28T05:14:01.741Z,47.25
2022-08-28T05:16:28.435Z,47.35
2022-08-28T05:19:00.236Z,47.45
2022-08-28T05:21:27.722Z,47.36
2022-08-28T05:23:56.455Z,47.49
2022-08-28T05:26:23.627Z,47.40
2022-08-28T05:28:55.575Z,47.33
2022-08-28T05:31:26.744Z,47.43
2022-08-28T05:33:53.663Z,47.26
2022-08-28T05:36:22.682Z,47.20
2022-08-28T05:38:50.645Z,47.66
2022-08-28T05:41:30.080Z,47.67
2022-08-28T05:44:03.040Z,47.18
2022-08-28T05:46:30.241Z,47.54
2022-08-28T05:48:57.592Z,47.58
2022-08-28T05:51:28.504Z,47.48
2022-08-28T05:53:57.451Z,47.49
2022-08-28T05:56:29.805Z,47.35
2022-08-28T05:58:57.683Z,47.64
2022-08-28T06:01:28.483Z,47.58
2022-08-28T06:03:57.390Z,47.37
2022-08-28T06:06:25.224Z,47.25
2022-08-28T06:08:58.981Z,47.23
2022-08-28T06:11:30.502Z,47.31
2022-08-28T06:16:19.900Z,47.49
2022-08-28T06:18:46.954Z,47.20
2022-08-28T06:21:13.824Z,47.53
2022-08-28T06:23:41.167Z,47.65
2022-08-28T06:26:08.068Z,47.17
2022-08-28T06:28:34.768Z,47.48
2022-08-28T06:31:23.964Z,47.12
2022-08-28T06:33:50.539Z,47.47
2022-08-28T06:36:17.076Z,47.53
2022-08-28T06:38:46.582Z,46.97
2022-08-28T06:41:13.908Z,47.63
2022-08-28T06:43:40.563Z,47.22
2022-08-28T06:46:07.639Z,47.50
2022-08-28T06:48:34.599Z,47.19
2022-08-28T06:51:02.181Z,47.48
2022-08-28T06:53:30.918Z,47.47
2022-08-28T06:56:08.611Z,47.32
2022-08-28T06:58:38.154Z,47.17
2022-08-28T07:01:12.243Z,47.10
2022-08-28T07:03:42.532Z,47.33
2022-08-28T07:06:12.855Z,47.31
2022-08-28T07:08:40.596Z,47.53
2022-08-28T07:11:26.073Z,47.41
2022-08-28T07:13:54.138Z,47.41
2022-08-28T07:16:24.922Z,47.35
2022-08-28T07:18:52.051Z,47.56
2022-08-28T07:21:18.737Z,47.54
2022-08-28T07:23:46.165Z,47.53
2022-08-28T07:26:17.039Z,47.47
2022-08-28T07:28:45.408Z,47.61
2022-08-28T07:31:20.537Z,47.63
2022-08-28T07:33:47.459Z,47.50
2022-08-28T07:36:29.921Z,47.39
2022-08-28T07:38:59.590Z,47.35
2022-08-28T07:41:29.370Z,47.60
2022-08-28T07:44:15.267Z,47.48
2022-08-28T07:46:42.207Z,47.61
2022-08-28T07:49:09.241Z,47.57
2022-08-28T07:51:36.399Z,47.72
2022-08-28T07:54:04.055Z,47.66
2022-08-28T07:59:03.364Z,47.75
2022-08-28T08:01:31.038Z,47.86
2022-08-28T08:04:01.678Z,47.60
2022-08-28T08:06:34.056Z,47.80
2022-08-28T08:11:18.726Z,47.98
2022-08-28T08:13:48.197Z,47.94
2022-08-28T08:16:23.510Z,47.90
2022-08-28T08:18:51.364Z,48.12
2022-08-28T08:21:19.913Z,48.20
2022-08-28T08:23:47.836Z,47.99
2022-08-28T08:26:20.100Z,48.03
2022-08-28T08:28:47.573Z,47.63
2022-08-28T08:31:19.904Z,47.91
2022-08-28T08:33:49.681Z,47.67
2022-08-28T08:36:19.837Z,47.87
2022-08-28T08:38:47.083Z,47.78
2022-08-28T08:41:23.718Z,48.04
2022-08-28T08:44:00.925Z,48.49
2022-08-28T08:46:39.690Z,49.81
2022-08-28T08:49:15.631Z,50.73
2022-08-28T08:51:46.319Z,51.40
2022-08-28T08:54:16.192Z,51.68
2022-08-28T08:56:44.660Z,52.06
2022-08-28T08:59:16.823Z,52.31
2022-08-28T09:01:50.880Z,52.25
2022-08-28T09:06:39.912Z,52.55
2022-08-28T09:09:18.474Z,53.06
2022-08-28T09:11:56.522Z,53.40
2022-08-28T09:14:33.920Z,53.69
2022-08-28T09:17:01.647Z,53.61
2022-08-28T09:19:28.309Z,53.54
2022-08-28T09:21:54.971Z,53.78
2022-08-28T09:24:28.421Z,53.52
2022-08-28T09:26:56.594Z,53.87
2022-08-28T09:29:33.118Z,53.76
2022-08-28T09:32:17.878Z,53.85
2022-08-28T09:35:18.945Z,54.07
2022-08-28T09:37:45.747Z,53.84
2022-08-28T09:40:51.015Z,54.03
2022-08-28T09:43:27.569Z,53.78
2022-08-28T09:45:59.578Z,54.00
2022-08-28T09:48:41.341Z,53.81
2022-08-28T09:51:21.585Z,53.77
2022-08-28T09:53:57.183Z,53.51
2022-08-28T09:56:35.992Z,53.54
2022-08-28T09:59:07.793Z,53.31
2022-08-28T10:01:46.439Z,53.17
2022-08-28T10:04:16.639Z,53.24
2022-08-28T10:06:56.822Z,53.49
2022-08-28T10:09:36.881Z,53.40
2022-08-28T10:12:37.564Z,53.92
2022-08-28T10:15:17.900Z,54.08
2022-08-28T10:18:18.400Z,54.21
2022-08-28T10:21:03.545Z,54.53
2022-08-28T10:23:58.571Z,54.72
2022-08-28T10:26:36.490Z,54.89
2022-08-28T10:29:11.200Z,54.84
2022-08-28T10:31:46.776Z,54.64
2022-08-28T10:34:46.717Z,54.16
2022-08-28T10:37:31.775Z,54.38
2022-08-28T10:40:04.403Z,54.01
2022-08-28T10:42:43.555Z,53.67
2022-08-28T10:45:15.440Z,53.45
2022-08-28T10:47:46.016Z,53.52
2022-08-28T10:50:22.166Z,53.28
2022-08-28T10:52:55.849Z,53.11
2022-08-28T10:55:37.709Z,53.25
2022-08-28T10:58:24.400Z,52.92
2022-08-28T11:01:01.620Z,52.61
2022-08-28T11:03:35.527Z,52.89
2022-08-28T11:06:13.459Z,52.39
2022-08-28T11:08:40.504Z,52.40
2022-08-28T11:11:13.704Z,52.08
2022-08-28T11:14:02.477Z,52.27
2022-08-28T11:16:30.176Z,51.94
2022-08-28T11:19:17.461Z,52.07
2022-08-28T11:21:52.949Z,51.72
2022-08-28T11:24:38.443Z,51.66
2022-08-28T11:27:31.030Z,51.58
2022-08-28T11:30:09.548Z,51.56
2022-08-28T11:33:00.802Z,51.68
2022-08-28T11:35:27.298Z,51.60
2022-08-28T11:37:54.914Z,51.63
2022-08-28T11:40:30.443Z,51.45
2022-08-28T11:43:15.916Z,51.49
2022-08-28T11:45:46.791Z,51.62
2022-08-28T11:48:36.006Z,51.36
2022-08-28T11:51:07.403Z,51.58
2022-08-28T11:53:33.908Z,51.74
2022-08-28T11:56:31.100Z,51.78
2022-08-28T11:59:13.266Z,51.51
2022-08-28T12:01:40.407Z,51.47
2022-08-28T12:04:13.408Z,51.60
2022-08-28T12:06:49.409Z,51.52
2022-08-28T12:09:37.375Z,51.27
2022-08-28T12:12:24.296Z,51.15
2022-08-28T12:15:07.758Z,51.35
2022-08-28T12:17:45.051Z,51.37
2022-08-28T12:20:20.907Z,50.98
2022-08-28T12:22:54.347Z,50.99
2022-08-28T12:25:31.819Z,51.03
2022-08-28T12:28:03.876Z,50.85
2022-08-28T12:30:40.263Z,51.04
2022-08-28T12:33:28.261Z,51.12
2022-08-28T12:36:02.452Z,50.70
2022-08-28T12:38:32.420Z,50.98
2022-08-28T12:40:59.383Z,50.77
2022-08-28T12:43:34.533Z,50.98
2022-08-28T12:46:29.888Z,51.05
2022-08-28T12:49:02.465Z,51.18
2022-08-28T12:53:50.643Z,51.04
2022-08-28T12:56:20.565Z,51.12
2022-08-28T12:58:48.981Z,50.98
2022-08-28T13:01:21.819Z,51.06
2022-08-28T13:03:56.909Z,50.96
2022-08-28T13:06:29.544Z,50.88
2022-08-28T13:09:07.161Z,50.93
2022-08-28T13:11:39.088Z,51.07
2022-08-28T13:14:08.457Z,51.19
2022-08-28T13:16:44.620Z,51.15
2022-08-28T13:19:25.923Z,51.59
2022-08-28T13:22:00.436Z,51.92
2022-08-28T13:24:27.333Z,51.82
2022-08-28T13:27:09.505Z,52.12
2022-08-28T13:29:36.943Z,52.10
2022-08-28T13:34:31.994Z,52.24
2022-08-28T13:37:01.468Z,52.12
2022-08-28T13:39:30.697Z,52.34
2022-08-28T13:42:07.025Z,52.56
2022-08-28T13:44:36.717Z,52.34
2022-08-28T13:47:06.759Z,52.16
2022-08-28T13:49:34.976Z,52.21
2022-08-28T13:52:07.019Z,51.83
2022-08-28T13:54:34.797Z,52.14
2022-08-28T13:57:02.716Z,52.15
2022-08-28T13:59:29.830Z,51.88
2022-08-28T14:02:18.422Z,51.66
2022-08-28T14:04:45.173Z,51.95
2022-08-28T14:07:13.226Z,51.54
2022-08-28T14:09:40.788Z,51.55
2022-08-28T14:12:08.801Z,51.69
2022-08-28T14:14:37.116Z,51.72
2022-08-28T14:17:04.584Z,51.71
2022-08-28T14:19:31.284Z,51.63
2022-08-28T14:21:57.905Z,51.64
2022-08-28T14:24:24.961Z,51.66
2022-08-28T14:26:51.768Z,51.52
2022-08-28T14:29:19.330Z,51.44
2022-08-28T14:31:46.537Z,51.41
2022-08-28T14:34:17.719Z,51.37
2022-08-28T14:36:44.389Z,51.51
2022-08-28T14:39:12.480Z,51.55
2022-08-28T14:41:44.403Z,51.43
2022-08-28T14:44:11.015Z,51.24
2022-08-28T14:46:37.995Z,51.58
2022-08-28T14:49:10.216Z,51.61
2022-08-28T14:51:38.828Z,51.66
2022-08-28T14:54:05.881Z,51.81
2022-08-28T14:56:32.674Z,51.62
2022-08-28T14:59:00.796Z,51.61
2022-08-28T15:01:40.382Z,51.46
2022-08-28T15:04:13.378Z,51.42
2022-08-28T15:06:42.496Z,51.20
2022-08-28T15:09:13.969Z,51.13
2022-08-28T15:11:43.519Z,50.98
2022-08-28T15:14:10.960Z,50.83
2022-08-28T15:16:45.484Z,50.86
2022-08-28T15:19:15.841Z,51.02
2022-08-28T15:21:49.388Z,50.86
2022-08-28T15:24:18.583Z,50.82
2022-08-28T15:26:45.311Z,50.65
2022-08-28T15:29:12.040Z,50.83
2022-08-28T15:31:42.488Z,50.75
2022-08-28T15:34:13.313Z,50.62
2022-08-28T15:36:42.080Z,50.51
2022-08-28T15:39:28.453Z,50.36
2022-08-28T15:41:56.245Z,50.41
2022-08-28T15:44:23.318Z,50.66
2022-08-28T15:46:55.800Z,50.43
2022-08-28T15:49:24.152Z,50.53
2022-08-28T15:51:52.090Z,50.22
2022-08-28T15:54:20.212Z,50.17
2022-08-28T15:56:46.817Z,50.22
2022-08-28T15:59:17.621Z,50.47
2022-08-28T16:01:47.388Z,50.35
2022-08-28T16:04:14.156Z,50.25
2022-08-28T16:06:41.716Z,50.35
2022-08-28T16:09:09.408Z,50.30
2022-08-28T16:11:38.672Z,50.31
2022-08-28T16:14:05.500Z,50.13
2022-08-28T16:16:32.476Z,50.20
2022-08-28T16:18:59.262Z,50.20
2022-08-28T16:21:28.099Z,50.31
2022-08-28T16:26:17.692Z,50.35
2022-08-28T16:28:47.316Z,49.88
2022-08-28T16:31:20.480Z,50.07
2022-08-28T16:33:49.717Z,50.15
2022-08-28T16:36:17.157Z,50.17
2022-08-28T16:38:46.821Z,49.99
2022-08-28T16:41:22.516Z,50.11
2022-08-28T16:43:50.493Z,49.95
2022-08-28T16:46:23.868Z,50.04
2022-08-28T16:48:51.564Z,49.80
2022-08-28T16:51:19.813Z,49.83
2022-08-28T16:53:47.089Z,49.73
2022-08-28T16:56:17.117Z,49.81
2022-08-28T16:58:45.907Z,49.88
2022-08-28T17:01:13.560Z,49.59
2022-08-28T17:06:10.727Z,49.66
2022-08-28T17:08:37.375Z,49.65
2022-08-28T17:11:04.120Z,49.75
2022-08-28T17:13:30.740Z,49.90
2022-08-28T17:15:57.398Z,49.47
2022-08-28T17:18:24.041Z,49.80
2022-08-28T17:21:09.079Z,49.51
2022-08-28T17:26:06.530Z,49.53
2022-08-28T17:28:33.529Z,49.34
2022-08-28T17:31:00.404Z,49.59
2022-08-28T17:33:27.770Z,49.27
2022-08-28T17:35:55.694Z,49.56
2022-08-28T17:38:22.275Z,49.45
2022-08-28T17:40:48.864Z,49.25
2022-08-28T17:43:15.537Z,49.46
2022-08-28T17:45:42.489Z,49.45
2022-08-28T17:48:09.401Z,49.27
2022-08-28T17:50:36.017Z,49.66
2022-08-28T17:53:02.683Z,49.43
2022-08-28T17:55:29.359Z,49.47
2022-08-28T17:57:56.045Z,49.41
2022-08-28T18:00:22.796Z,49.43
2022-08-28T18:02:50.994Z,49.41
2022-08-28T18:05:18.107Z,49.24
2022-08-28T18:07:44.769Z,49.22
2022-08-28T18:10:12.069Z,49.25
2022-08-28T18:14:52.082Z,49.35
2022-08-28T18:17:19.860Z,49.36
2022-08-28T18:19:46.435Z,49.20
2022-08-28T18:22:13.849Z,49.37
2022-08-28T18:24:41.221Z,49.18
2022-08-28T18:27:09.344Z,49.37
2022-08-28T18:29:36.743Z,49.36
2022-08-28T18:32:10.113Z,49.16
2022-08-28T18:34:36.803Z,49.23
2022-08-28T18:37:03.694Z,49.20
2022-08-28T18:39:30.504Z,49.19
2022-08-28T18:41:58.338Z,49.45
2022-08-28T18:44:27.835Z,49.28
2022-08-28T18:46:54.876Z,49.36
2022-08-28T18:49:21.726Z,49.51
2022-08-28T18:51:48.408Z,49.41
2022-08-28T18:54:18.554Z,49.46
2022-08-28T18:56:48.329Z,49.48
2022-08-28T18:59:20.145Z,49.19
2022-08-28T19:01:46.957Z,49.32
2022-08-28T19:06:57.430Z,49.26
2022-08-28T19:09:30.329Z,49.30
2022-08-28T19:11:59.023Z,49.22
2022-08-28T19:14:28.085Z,49.28
2022-08-28T19:16:55.542Z,49.33
2022-08-28T19:19:27.359Z,49.36
2022-08-28T19:21:54.310Z,49.28
2022-08-28T19:24:22.432Z,49.32
2022-08-28T19:26:49.237Z,49.41
2022-08-28T19:29:16.490Z,49.19
2022-08-28T19:31:46.276Z,49.22
2022-08-28T19:34:13.094Z,49.18
2022-08-28T19:36:43.742Z,49.21
2022-08-28T19:39:10.718Z,49.04
2022-08-28T19:41:37.634Z,49.17
2022-08-28T19:44:05.859Z,49.32
2022-08-28T19:46:34.302Z,49.13
2022-08-28T19:49:04.239Z,49.35
2022-08-28T19:51:30.923Z,49.15
2022-08-28T19:54:02.700Z,49.23
2022-08-28T19:56:37.926Z,49.16
2022-08-28T20:01:30.383Z,49.15
2022-08-28T20:04:01.154Z,49.14
2022-08-28T20:06:33.062Z,49.17
2022-08-28T20:09:01.036Z,49.06
2022-08-28T20:11:30.440Z,49.19
2022-08-28T20:14:04.252Z,49.41
2022-08-28T20:16:34.287Z,49.05
2022-08-28T20:19:02.907Z,49.38
2022-08-28T20:21:36.808Z,49.23
2022-08-28T20:24:09.273Z,49.09
2022-08-28T20:26:37.038Z,49.29
2022-08-28T20:29:06.462Z,49.25
2022-08-28T20:31:33.937Z,49.14
2022-08-28T20:34:03.279Z,49.12
2022-08-28T20:36:29.884Z,49.20
2022-08-28T20:38:56.909Z,49.32
2022-08-28T20:41:26.298Z,49.11
2022-08-28T20:43:52.879Z,49.03
2022-08-28T20:46:19.784Z,49.18
2022-08-28T20:48:46.655Z,49.39
2022-08-28T20:51:13.299Z,49.08
2022-08-28T20:53:40.067Z,49.08
2022-08-28T20:56:09.959Z,49.20
2022-08-28T20:58:37.855Z,48.99
2022-08-28T21:01:05.607Z,49.15
2022-08-28T21:03:32.423Z,49.12
2022-08-28T21:05:59.036Z,49.04
2022-08-28T21:08:25.816Z,49.15
2022-08-28T21:10:52.734Z,49.15
2022-08-28T21:13:19.571Z,49.25
2022-08-28T21:15:46.379Z,49.00
2022-08-28T21:18:13.801Z,49.24
2022-08-28T21:20:40.872Z,49.05
2022-08-28T21:23:07.450Z,49.14
2022-08-28T21:25:34.136Z,49.16
2022-08-28T21:28:04.090Z,49.00
2022-08-28T21:30:31.206Z,49.09
2022-08-28T21:32:58.000Z,49.08
2022-08-28T21:35:24.680Z,49.02
2022-08-28T21:37:51.512Z,49.08
2022-08-28T21:40:19.479Z,49.18
2022-08-28T21:42:46.107Z,48.82
2022-08-28T21:45:13.298Z,48.77
2022-08-28T21:47:41.616Z,49.21
2022-08-28T21:50:08.861Z,49.16
2022-08-28T21:52:35.677Z,49.21
2022-08-28T21:55:08.460Z,49.08
2022-08-28T21:57:35.349Z,49.19
2022-08-28T22:00:02.149Z,49.11
2022-08-28T22:02:29.012Z,48.80
2022-08-28T22:04:55.800Z,48.88
2022-08-28T22:07:22.553Z,49.17
2022-08-28T22:09:49.361Z,48.93
2022-08-28T22:12:16.651Z,49.06
2022-08-28T22:14:43.313Z,49.15
2022-08-28T22:17:11.383Z,48.96
2022-08-28T22:19:39.572Z,48.84
2022-08-28T22:22:25.091Z,48.98
2022-08-28T22:24:51.780Z,49.08
2022-08-28T22:27:18.385Z,48.80
2022-08-28T22:29:45.055Z,49.01
2022-08-28T22:32:11.961Z,49.08
2022-08-28T22:34:41.263Z,49.11
2022-08-28T22:37:11.420Z,48.90
2022-08-28T22:39:42.636Z,49.00
2022-08-28T22:44:32.020Z,49.16
2022-08-28T22:46:58.696Z,49.04
2022-08-28T22:49:25.631Z,48.97
2022-08-28T22:51:52.284Z,48.88
2022-08-28T22:54:18.888Z,49.12
2022-08-28T22:56:45.481Z,48.94
2022-08-28T22:59:12.092Z,48.77
2022-08-28T23:01:42.249Z,48.99
2022-08-28T23:04:09.931Z,49.10
2022-08-28T23:06:39.901Z,48.80
2022-08-28T23:09:08.102Z,48.98
2022-08-28T23:11:35.923Z,49.10
2022-08-28T23:14:03.979Z,48.77
2022-08-28T23:16:31.216Z,49.03
2022-08-28T23:19:08.912Z,49.11
2022-08-28T23:21:36.593Z,48.94
2022-08-28T23:24:10.033Z,49.02
2022-08-28T23:26:36.561Z,48.94
2022-08-28T23:29:03.464Z,48.86
2022-08-28T23:31:30.105Z,48.91
2022-08-28T23:33:56.719Z,48.90
2022-08-28T23:36:23.747Z,48.95
2022-08-28T23:38:50.627Z,49.06
2022-08-28T23:41:18.684Z,48.95
2022-08-28T23:43:45.998Z,48.58
2022-08-28T23:46:16.370Z,48.90
2022-08-28T23:48:43.768Z,48.77
2022-08-28T23:51:14.257Z,49.10
2022-08-28T23:53:43.241Z,49.07
2022-08-28T23:56:10.297Z,48.85
2022-08-28T23:58:37.032Z,48.85
